createdAt,value
2023-05-22T00:00:34.078Z,42.89
2023-05-22T00:01:34.030Z,42.91
2023-05-22T00:02:34.132Z,42.84
2023-05-22T00:03:34.040Z,42.86
2023-05-22T00:04:34.030Z,42.86
2023-05-22T00:05:33.989Z,42.87
2023-05-22T00:06:33.891Z,42.90
2023-05-22T00:07:33.896Z,42.87
2023-05-22T00:08:33.860Z,42.92
2023-05-22T00:09:33.888Z,42.90
2023-05-22T00:10:33.860Z,42.90
2023-05-22T00:11:33.818Z,42.90
2023-05-22T00:12:33.829Z,42.90
2023-05-22T00:13:33.769Z,42.90
2023-05-22T00:14:33.764Z,42.89
2023-05-22T00:15:33.769Z,42.89
2023-05-22T00:16:33.773Z,42.90
2023-05-22T00:17:33.734Z,42.94
2023-05-22T00:18:33.734Z,42.91
2023-05-22T00:19:33.826Z,42.95
2023-05-22T00:20:33.754Z,42.97
2023-05-22T00:21:33.821Z,42.95
2023-05-22T00:22:33.722Z,42.96
2023-05-22T00:23:33.694Z,42.98
2023-05-22T00:24:33.660Z,42.98
2023-05-22T00:25:33.616Z,42.95
2023-05-22T00:26:33.583Z,42.95
2023-05-22T00:27:33.598Z,42.97
2023-05-22T00:28:33.557Z,42.99
2023-05-22T00:29:33.495Z,42.99
2023-05-22T00:30:33.486Z,42.99
2023-05-22T00:31:33.436Z,43.00
2023-05-22T00:32:33.429Z,43.00
2023-05-22T00:33:33.388Z,42.98
2023-05-22T00:34:33.399Z,43.01
2023-05-22T00:35:33.341Z,43.02
2023-05-22T00:36:33.307Z,43.02
2023-05-22T00:37:33.323Z,43.00
2023-05-22T00:38:33.263Z,43.03
2023-05-22T00:39:33.231Z,43.03
2023-05-22T00:40:33.203Z,43.05
2023-05-22T00:41:33.171Z,43.06
2023-05-22T00:42:33.100Z,43.04
2023-05-22T00:43:33.080Z,43.04
2023-05-22T00:44:33.057Z,43.08
2023-05-22T00:45:33.017Z,43.08
2023-05-22T00:46:33.139Z,43.07
2023-05-22T00:47:33.004Z,43.06
2023-05-22T00:48:32.906Z,43.05
2023-05-22T00:49:32.874Z,43.04
2023-05-22T00:50:32.919Z,43.08
2023-05-22T00:51:32.942Z,43.02
2023-05-22T00:52:32.936Z,43.05
2023-05-22T00:53:32.886Z,43.01
2023-05-22T00:54:32.910Z,43.02
2023-05-22T00:55:32.953Z,43.08
2023-05-22T00:56:32.825Z,43.08
2023-05-22T00:57:32.830Z,43.06
2023-05-22T00:58:32.762Z,43.07
2023-05-22T00:59:32.769Z,43.06
2023-05-22T01:00:32.743Z,43.10
2023-05-22T01:01:32.719Z,43.08
2023-05-22T01:02:32.764Z,43.08
2023-05-22T01:03:32.635Z,43.08
2023-05-22T01:04:32.591Z,43.09
2023-05-22T01:05:32.604Z,43.07
2023-05-22T01:06:32.536Z,43.12
2023-05-22T01:07:32.536Z,43.06
2023-05-22T01:08:32.498Z,43.11
2023-05-22T01:09:32.478Z,43.11
2023-05-22T01:10:32.460Z,43.08
2023-05-22T01:11:32.448Z,43.12
2023-05-22T01:12:32.461Z,43.13
2023-05-22T01:13:32.413Z,43.13
2023-05-22T01:14:32.357Z,43.14
2023-05-22T01:15:32.405Z,43.17
2023-05-22T01:16:32.402Z,43.14
2023-05-22T01:17:32.373Z,43.15
2023-05-22T01:18:32.261Z,43.17
2023-05-22T01:19:32.312Z,43.18
2023-05-22T01:20:32.211Z,43.19
2023-05-22T01:21:32.195Z,43.17
2023-05-22T01:22:32.161Z,43.17
2023-05-22T01:23:32.130Z,43.16
2023-05-22T01:24:32.092Z,43.14
2023-05-22T01:25:32.110Z,43.13
2023-05-22T01:26:32.032Z,43.14
2023-05-22T01:27:32.007Z,43.16
2023-05-22T01:28:31.965Z,43.17
2023-05-22T01:29:31.952Z,43.16
2023-05-22T01:30:31.886Z,43.17
2023-05-22T01:31:31.878Z,43.18
2023-05-22T01:32:31.926Z,43.16
2023-05-22T01:33:31.896Z,43.17
2023-05-22T01:34:31.832Z,43.15
2023-05-22T01:35:31.808Z,43.20
2023-05-22T01:36:31.773Z,43.19
2023-05-22T01:37:31.722Z,43.20
2023-05-22T01:38:31.700Z,43.20
2023-05-22T01:39:31.689Z,43.22
2023-05-22T01:40:31.627Z,43.23
2023-05-22T01:41:31.649Z,43.18
2023-05-22T01:42:31.597Z,43.21
2023-05-22T01:43:31.564Z,43.21
2023-05-22T01:44:31.580Z,43.19
2023-05-22T01:45:31.601Z,43.15
2023-05-22T01:46:31.551Z,43.21
2023-05-22T01:47:31.538Z,43.21
2023-05-22T01:48:31.453Z,43.24
2023-05-22T01:49:31.423Z,43.25
2023-05-22T01:50:31.400Z,43.24
2023-05-22T01:51:31.371Z,43.26
2023-05-22T01:52:31.323Z,43.22
2023-05-22T01:53:31.308Z,43.26
2023-05-22T01:54:31.272Z,43.24
2023-05-22T01:55:31.248Z,43.23
2023-05-22T01:56:31.215Z,43.23
2023-05-22T01:57:31.281Z,43.22
2023-05-22T01:58:31.250Z,43.22
2023-05-22T01:59:31.132Z,43.26
2023-05-22T02:00:31.110Z,43.29
2023-05-22T02:01:31.163Z,43.26
2023-05-22T02:02:31.162Z,43.27
2023-05-22T02:03:31.137Z,43.32
2023-05-22T02:04:31.080Z,43.30
2023-05-22T02:05:31.041Z,43.31
2023-05-22T02:06:31.064Z,43.32
2023-05-22T02:07:31.058Z,43.34
2023-05-22T02:08:31.065Z,43.35
2023-05-22T02:09:31.040Z,43.35
2023-05-22T02:10:31.052Z,43.34
2023-05-22T02:11:31.025Z,43.35
2023-05-22T02:12:30.980Z,43.35
2023-05-22T02:13:30.962Z,43.34
2023-05-22T02:14:31.008Z,43.32
2023-05-22T02:15:30.951Z,43.33
2023-05-22T02:16:30.929Z,43.32
2023-05-22T02:17:30.914Z,43.32
2023-05-22T02:18:30.882Z,43.34
2023-05-22T02:19:31.007Z,43.35
2023-05-22T02:20:30.871Z,43.36
2023-05-22T02:21:30.844Z,43.38
2023-05-22T02:22:30.864Z,43.37
2023-05-22T02:23:30.853Z,43.36
2023-05-22T02:24:30.871Z,43.36
2023-05-22T02:25:30.821Z,43.35
2023-05-22T02:26:30.807Z,43.36
2023-05-22T02:27:30.807Z,43.34
2023-05-22T02:28:30.767Z,43.39
2023-05-22T02:29:30.728Z,43.36
2023-05-22T02:30:30.729Z,43.40
2023-05-22T02:31:30.695Z,43.40
2023-05-22T02:32:30.690Z,43.42
2023-05-22T02:33:30.645Z,43.41
2023-05-22T02:34:30.661Z,43.39
2023-05-22T02:35:30.656Z,43.38
2023-05-22T02:36:30.663Z,43.37
2023-05-22T02:37:30.668Z,43.38
2023-05-22T02:38:30.667Z,43.40
2023-05-22T02:39:30.680Z,43.37
2023-05-22T02:40:30.662Z,43.38
2023-05-22T02:41:30.736Z,43.40
2023-05-22T02:42:30.790Z,43.39
2023-05-22T02:43:30.757Z,43.38
2023-05-22T02:44:30.776Z,43.35
2023-05-22T02:45:30.799Z,43.39
2023-05-22T02:46:30.878Z,43.39
2023-05-22T02:47:31.029Z,43.39
2023-05-22T02:48:30.934Z,43.41
2023-05-22T02:49:30.884Z,43.42
2023-05-22T02:50:30.875Z,43.42
2023-05-22T02:51:30.909Z,43.44
2023-05-22T02:52:30.918Z,43.42
2023-05-22T02:53:30.849Z,43.46
2023-05-22T02:54:30.813Z,43.44
2023-05-22T02:55:30.830Z,43.43
2023-05-22T02:56:30.771Z,43.43
2023-05-22T02:57:30.777Z,43.43
2023-05-22T02:58:30.739Z,43.45
2023-05-22T02:59:30.735Z,43.43
2023-05-22T03:00:30.688Z,43.44
2023-05-22T03:01:30.769Z,43.44
2023-05-22T03:02:30.750Z,43.45
2023-05-22T03:03:30.698Z,43.45
2023-05-22T03:04:30.675Z,43.43
2023-05-22T03:05:30.678Z,43.44
2023-05-22T03:06:30.638Z,43.47
2023-05-22T03:08:34.392Z,43.57
2023-05-22T03:09:34.461Z,43.53
2023-05-22T03:10:34.406Z,43.49
2023-05-22T03:11:34.409Z,43.52
2023-05-22T03:12:34.394Z,43.49
2023-05-22T03:13:34.395Z,43.48
2023-05-22T03:14:34.386Z,43.51
2023-05-22T03:15:34.376Z,43.51
2023-05-22T03:16:34.416Z,43.53
2023-05-22T03:17:34.595Z,43.50
2023-05-22T03:18:34.422Z,43.50
2023-05-22T03:19:34.404Z,43.51
2023-05-22T03:20:34.339Z,43.49
2023-05-22T03:21:34.362Z,43.50
2023-05-22T03:22:34.397Z,43.49
2023-05-22T03:23:34.336Z,43.48
2023-05-22T03:24:34.357Z,43.48
2023-05-22T03:25:34.352Z,43.45
2023-05-22T03:26:34.316Z,43.48
2023-05-22T03:27:34.371Z,43.48
2023-05-22T03:28:34.321Z,43.47
2023-05-22T03:29:34.332Z,43.41
2023-05-22T03:30:34.308Z,43.40
2023-05-22T03:31:34.326Z,43.46
2023-05-22T03:32:34.429Z,43.51
2023-05-22T03:33:34.370Z,43.47
2023-05-22T03:34:34.300Z,43.47
2023-05-22T03:35:34.297Z,43.46
2023-05-22T03:36:34.340Z,43.44
2023-05-22T03:37:34.340Z,43.45
2023-05-22T03:38:34.333Z,43.55
2023-05-22T03:39:34.312Z,43.53
2023-05-22T03:40:34.324Z,43.50
2023-05-22T03:41:34.368Z,43.42
2023-05-22T03:42:34.314Z,43.47
2023-05-22T03:43:34.316Z,43.48
2023-05-22T03:44:34.318Z,43.48
2023-05-22T03:45:34.385Z,43.51
2023-05-22T03:46:34.282Z,43.46
2023-05-22T03:47:34.427Z,43.49
2023-05-22T03:48:34.308Z,43.46
2023-05-22T03:49:34.306Z,43.51
2023-05-22T03:50:34.267Z,43.50
2023-05-22T03:51:34.273Z,43.48
2023-05-22T03:52:34.303Z,43.51
2023-05-22T03:53:34.259Z,43.49
2023-05-22T03:54:34.269Z,43.50
2023-05-22T03:55:34.298Z,43.47
2023-05-22T03:56:34.417Z,43.49
2023-05-22T03:57:34.474Z,43.49
2023-05-22T03:58:34.434Z,43.52
2023-05-22T03:59:34.510Z,43.52
2023-05-22T04:00:34.528Z,43.50
2023-05-22T04:01:34.562Z,43.51
2023-05-22T04:02:34.657Z,43.46
2023-05-22T04:03:34.717Z,43.47
2023-05-22T04:04:34.783Z,43.45
2023-05-22T04:05:34.862Z,43.44
2023-05-22T04:06:34.834Z,43.38
2023-05-22T04:07:34.828Z,43.39
2023-05-22T04:08:34.878Z,43.41
2023-05-22T04:09:34.913Z,43.42
2023-05-22T04:10:35.008Z,43.42
2023-05-22T04:11:35.037Z,43.35
2023-05-22T04:12:35.072Z,43.31
2023-05-22T04:13:35.115Z,43.29
2023-05-22T04:14:35.201Z,43.35
2023-05-22T04:15:35.259Z,43.33
2023-05-22T04:16:35.286Z,43.32
2023-05-22T04:17:35.453Z,43.28
2023-05-22T04:18:35.360Z,43.32
2023-05-22T04:19:35.432Z,43.33
2023-05-22T04:20:35.434Z,43.34
2023-05-22T04:21:35.449Z,43.34
2023-05-22T04:22:35.516Z,43.28
2023-05-22T04:23:35.563Z,43.29
2023-05-22T04:24:35.591Z,43.20
2023-05-22T04:25:35.615Z,43.21
2023-05-22T04:26:35.639Z,43.23
2023-05-22T04:27:35.693Z,43.20
2023-05-22T04:28:35.733Z,43.23
2023-05-22T04:29:35.762Z,43.20
2023-05-22T04:30:35.803Z,43.12
2023-05-22T04:31:35.994Z,43.17
2023-05-22T04:32:35.974Z,43.14
2023-05-22T04:33:35.940Z,43.12
2023-05-22T04:34:36.019Z,43.08
2023-05-22T04:35:36.088Z,43.04
2023-05-22T04:36:36.161Z,43.09
2023-05-22T04:37:36.191Z,43.07
2023-05-22T04:38:36.214Z,43.08
2023-05-22T04:39:36.285Z,43.08
2023-05-22T04:40:36.332Z,43.04
2023-05-22T04:41:36.360Z,43.02
2023-05-22T04:42:36.406Z,43.02
2023-05-22T04:43:36.455Z,43.00
2023-05-22T04:44:36.474Z,42.97
2023-05-22T04:45:36.532Z,42.95
2023-05-22T04:46:36.659Z,42.99
2023-05-22T04:47:36.722Z,42.98
2023-05-22T04:48:36.751Z,42.89
2023-05-22T04:49:36.829Z,42.94
2023-05-22T04:50:37.001Z,42.96
2023-05-22T04:51:36.897Z,42.97
2023-05-22T04:52:36.987Z,43.14
2023-05-22T04:53:37.043Z,43.46
2023-05-22T04:54:37.093Z,43.53
2023-05-22T04:55:37.133Z,43.71
2023-05-22T04:56:37.546Z,43.87
2023-05-22T04:57:37.256Z,43.99
2023-05-22T04:58:37.330Z,44.20
2023-05-22T04:59:37.392Z,44.33
2023-05-22T05:00:37.727Z,44.44
2023-05-22T05:01:37.763Z,44.50
2023-05-22T05:02:37.585Z,44.64
2023-05-22T05:03:37.646Z,44.84
2023-05-22T05:04:37.722Z,44.93
2023-05-22T05:05:37.795Z,45.03
2023-05-22T05:06:37.851Z,45.17
2023-05-22T05:07:37.858Z,45.24
2023-05-22T05:08:37.921Z,45.33
2023-05-22T05:09:37.972Z,45.43
2023-05-22T05:10:38.360Z,45.48
2023-05-22T05:11:38.026Z,45.50
2023-05-22T05:12:38.059Z,45.61
2023-05-22T05:13:38.123Z,45.64
2023-05-22T05:14:38.152Z,45.71
2023-05-22T05:15:38.208Z,45.79
2023-05-22T05:16:38.352Z,45.80
2023-05-22T05:17:38.399Z,45.83
2023-05-22T05:18:38.343Z,45.90
2023-05-22T05:19:38.448Z,45.91
2023-05-22T05:20:38.769Z,45.94
2023-05-22T05:21:38.450Z,45.98
2023-05-22T05:22:38.549Z,46.00
2023-05-22T05:23:38.565Z,46.07
2023-05-22T05:24:38.586Z,46.13
2023-05-22T05:25:38.659Z,46.11
2023-05-22T05:26:38.677Z,46.19
2023-05-22T05:27:38.712Z,46.14
2023-05-22T05:28:38.768Z,46.16
2023-05-22T05:29:38.772Z,46.13
2023-05-22T05:30:39.001Z,46.18
2023-05-22T05:31:38.975Z,46.11
2023-05-22T05:32:38.939Z,46.13
2023-05-22T05:33:39.009Z,46.08
2023-05-22T05:34:39.029Z,46.06
2023-05-22T05:35:41.416Z,46.01
2023-05-22T05:36:39.115Z,46.42
2023-05-22T05:37:39.104Z,46.20
2023-05-22T05:38:39.064Z,46.27
2023-05-22T05:39:39.087Z,46.33
2023-05-22T05:40:39.470Z,46.49
2023-05-22T05:41:39.067Z,46.78
2023-05-22T05:42:39.105Z,46.80
2023-05-22T05:43:39.096Z,46.99
2023-05-22T05:44:39.123Z,47.21
2023-05-22T05:45:39.002Z,47.32
2023-05-22T05:46:39.065Z,47.66
2023-05-22T05:47:39.100Z,47.83
2023-05-22T05:48:39.016Z,47.79
2023-05-22T05:49:39.027Z,47.60
2023-05-22T05:50:39.290Z,47.35
2023-05-22T05:51:38.936Z,47.53
2023-05-22T05:52:38.960Z,47.74
2023-05-22T05:53:38.960Z,47.49
2023-05-22T05:54:38.968Z,47.31
2023-05-22T05:55:38.946Z,47.57
2023-05-22T05:56:38.938Z,47.16
2023-05-22T05:57:39.087Z,46.91
2023-05-22T05:58:38.924Z,46.75
2023-05-22T05:59:38.903Z,46.76
2023-05-22T06:00:39.130Z,47.03
2023-05-22T06:01:38.915Z,47.30
2023-05-22T06:02:39.000Z,47.37
2023-05-22T06:03:38.972Z,47.45
2023-05-22T06:04:38.877Z,47.33
2023-05-22T06:05:38.905Z,47.43
2023-05-22T06:06:38.848Z,47.50
2023-05-22T06:07:38.910Z,47.65
2023-05-22T06:08:38.925Z,47.60
2023-05-22T06:09:38.950Z,47.81
2023-05-22T06:10:39.241Z,47.80
2023-05-22T06:11:39.002Z,47.91
2023-05-22T06:12:39.016Z,47.91
2023-05-22T06:13:39.007Z,47.79
2023-05-22T06:14:39.061Z,47.72
2023-05-22T06:15:39.107Z,47.68
2023-05-22T06:16:39.162Z,47.76
2023-05-22T06:17:39.120Z,47.84
2023-05-22T06:18:39.124Z,47.78
2023-05-22T06:19:39.113Z,47.84
2023-05-22T06:20:39.263Z,47.93
2023-05-22T06:21:39.150Z,47.95
2023-05-22T06:22:39.195Z,47.91
2023-05-22T06:23:39.210Z,48.00
2023-05-22T06:24:39.286Z,48.13
2023-05-22T06:25:39.280Z,48.21
2023-05-22T06:26:39.323Z,48.40
2023-05-22T06:27:39.346Z,48.66
2023-05-22T06:28:39.422Z,48.90
2023-05-22T06:29:39.305Z,49.40
2023-05-22T06:30:40.405Z,49.33
2023-05-22T06:31:39.334Z,49.43
2023-05-22T06:32:39.509Z,49.42
2023-05-22T06:33:39.391Z,49.58
2023-05-22T06:34:39.288Z,49.63
2023-05-22T06:35:39.367Z,49.59
2023-05-22T06:36:39.297Z,49.75
2023-05-22T06:37:39.295Z,49.71
2023-05-22T06:38:39.357Z,49.63
2023-05-22T06:39:39.285Z,49.59
2023-05-22T06:40:39.684Z,49.77
2023-05-22T06:41:39.302Z,49.95
2023-05-22T06:42:39.340Z,49.75
2023-05-22T06:43:39.287Z,49.92
2023-05-22T06:44:39.298Z,50.13
2023-05-22T06:45:39.337Z,50.02
2023-05-22T06:46:39.359Z,50.44
2023-05-22T06:47:39.291Z,50.41
2023-05-22T06:48:39.280Z,50.50
2023-05-22T06:49:39.300Z,50.72
2023-05-22T06:50:39.510Z,50.72
2023-05-22T06:51:39.449Z,50.50
2023-05-22T06:52:39.376Z,50.23
2023-05-22T06:53:39.402Z,50.55
2023-05-22T06:54:39.412Z,50.40
2023-05-22T06:55:39.486Z,50.03
2023-05-22T06:56:39.515Z,50.21
2023-05-22T06:57:39.580Z,49.61
2023-05-22T06:58:39.627Z,49.62
2023-05-22T06:59:39.640Z,49.61
2023-05-22T07:00:39.978Z,49.69
2023-05-22T07:01:39.887Z,49.35
2023-05-22T07:02:39.894Z,49.45
2023-05-22T07:03:39.792Z,49.61
2023-05-22T07:04:39.816Z,49.71
2023-05-22T07:05:39.894Z,49.84
2023-05-22T07:06:39.908Z,49.96
2023-05-22T07:07:39.952Z,50.05
2023-05-22T07:08:39.970Z,50.22
2023-05-22T07:09:40.006Z,50.34
2023-05-22T07:10:40.293Z,50.35
2023-05-22T07:11:40.052Z,50.30
2023-05-22T07:12:40.077Z,50.14
2023-05-22T07:13:40.106Z,50.20
2023-05-22T07:14:40.207Z,50.35
2023-05-22T07:15:40.203Z,50.55
2023-05-22T07:16:40.287Z,50.60
2023-05-22T07:17:40.320Z,50.68
2023-05-22T07:18:40.277Z,50.79
2023-05-22T07:19:40.353Z,50.89
2023-05-22T07:20:40.519Z,51.04
2023-05-22T07:21:40.499Z,51.09
2023-05-22T07:22:40.486Z,51.29
2023-05-22T07:23:40.506Z,51.22
2023-05-22T07:24:40.635Z,51.04
2023-05-22T07:25:40.632Z,50.85
2023-05-22T07:26:40.693Z,50.77
2023-05-22T07:27:40.741Z,50.60
2023-05-22T07:28:40.774Z,50.74
2023-05-22T07:29:40.829Z,50.72
2023-05-22T07:30:41.110Z,50.52
2023-05-22T07:31:40.964Z,50.53
2023-05-22T07:32:41.169Z,50.50
2023-05-22T07:33:41.040Z,50.29
2023-05-22T07:34:41.128Z,50.31
2023-05-22T07:35:41.107Z,50.31
2023-05-22T07:36:41.169Z,50.42
2023-05-22T07:37:41.223Z,50.34
2023-05-22T07:38:41.226Z,50.41
2023-05-22T07:39:41.266Z,50.20
2023-05-22T07:40:41.372Z,50.59
2023-05-22T07:41:41.356Z,50.78
2023-05-22T07:42:41.355Z,50.99
2023-05-22T07:43:41.381Z,51.03
2023-05-22T07:44:41.474Z,50.71
2023-05-22T07:45:41.506Z,51.14
2023-05-22T07:46:41.588Z,50.65
2023-05-22T07:47:41.590Z,50.37
2023-05-22T07:48:41.525Z,50.36
2023-05-22T07:49:41.556Z,50.08
2023-05-22T07:50:41.564Z,49.88
2023-05-22T07:51:41.597Z,49.86
2023-05-22T07:52:41.627Z,49.79
2023-05-22T07:53:41.669Z,49.96
2023-05-22T07:54:43.500Z,50.22
2023-05-22T07:55:41.803Z,50.39
2023-05-22T07:56:41.607Z,50.58
2023-05-22T07:57:41.609Z,50.90
2023-05-22T07:58:41.580Z,50.71
2023-05-22T07:59:41.572Z,50.71
2023-05-22T08:00:41.555Z,50.53
2023-05-22T08:01:41.550Z,50.66
2023-05-22T08:02:41.716Z,50.73
2023-05-22T08:03:41.669Z,50.68
2023-05-22T08:04:41.712Z,50.87
2023-05-22T08:05:41.486Z,51.09
2023-05-22T08:06:41.479Z,50.80
2023-05-22T08:07:43.177Z,50.71
2023-05-22T08:08:41.456Z,50.74
2023-05-22T08:09:41.501Z,50.79
2023-05-22T08:10:58.137Z,50.74
2023-05-22T08:11:42.507Z,50.80
2023-05-22T08:12:41.467Z,50.73
2023-05-22T08:13:41.446Z,50.80
2023-05-22T08:14:41.454Z,50.70
2023-05-22T08:15:41.399Z,50.72
2023-05-22T08:16:41.450Z,50.82
2023-05-22T08:17:41.462Z,50.92
2023-05-22T08:18:41.400Z,50.93
2023-05-22T08:19:41.480Z,50.87
2023-05-22T08:20:41.606Z,50.83
2023-05-22T08:21:41.405Z,51.04
2023-05-22T08:22:41.383Z,51.04
2023-05-22T08:23:41.367Z,50.90
2023-05-22T08:24:41.345Z,50.65
2023-05-22T08:25:41.346Z,50.83
2023-05-22T08:26:41.368Z,50.75
2023-05-22T08:27:41.398Z,50.77
2023-05-22T08:28:41.347Z,50.76
2023-05-22T08:29:41.358Z,50.72
2023-05-22T08:30:41.477Z,50.62
2023-05-22T08:31:41.334Z,50.62
2023-05-22T08:32:41.353Z,50.76
2023-05-22T08:33:41.368Z,50.59
2023-05-22T08:34:41.391Z,50.05
2023-05-22T08:35:41.426Z,50.40
2023-05-22T08:36:41.563Z,50.42
2023-05-22T08:37:41.506Z,50.61
2023-05-22T08:38:41.574Z,51.44
2023-05-22T08:39:41.708Z,51.24
2023-05-22T08:40:43.910Z,51.13
2023-05-22T08:41:41.695Z,51.47
2023-05-22T08:42:41.679Z,51.27
2023-05-22T08:43:41.665Z,51.35
2023-05-22T08:44:41.664Z,51.35
2023-05-22T08:45:41.615Z,51.18
2023-05-22T08:46:41.689Z,51.34
2023-05-22T08:47:41.671Z,51.35
2023-05-22T08:48:41.581Z,51.20
2023-05-22T08:49:41.639Z,51.24
2023-05-22T08:50:41.748Z,51.59
2023-05-22T08:51:41.568Z,51.75
2023-05-22T08:52:41.674Z,51.90
2023-05-22T08:53:41.590Z,52.07
2023-05-22T08:54:41.546Z,51.91
2023-05-22T08:55:41.529Z,51.99
2023-05-22T08:56:52.962Z,51.99
2023-05-22T08:57:42.500Z,51.95
2023-05-22T08:58:41.491Z,51.73
2023-05-22T08:59:41.468Z,51.47
2023-05-22T09:00:41.612Z,51.28
2023-05-22T09:01:41.464Z,51.10
2023-05-22T09:02:41.466Z,51.13
2023-05-22T09:03:41.496Z,50.96
2023-05-22T09:04:41.425Z,50.83
2023-05-22T09:05:41.388Z,50.87
2023-05-22T09:06:41.439Z,50.98
2023-05-22T09:07:41.382Z,51.06
2023-05-22T09:08:42.262Z,51.13
2023-05-22T09:09:41.372Z,51.12
2023-05-22T09:10:41.577Z,51.21
2023-05-22T09:11:41.365Z,51.24
2023-05-22T09:12:41.333Z,51.22
2023-05-22T09:13:41.399Z,51.16
2023-05-22T09:14:41.319Z,51.29
2023-05-22T09:15:41.298Z,51.31
2023-05-22T09:16:41.340Z,51.25
2023-05-22T09:17:41.424Z,51.15
2023-05-22T09:18:41.303Z,51.16
2023-05-22T09:19:41.314Z,51.29
2023-05-22T09:20:41.609Z,51.31
2023-05-22T09:21:41.258Z,51.24
2023-05-22T09:22:41.272Z,51.22
2023-05-22T09:23:41.227Z,51.07
2023-05-22T09:24:41.249Z,50.96
2023-05-22T09:25:41.180Z,50.92
2023-05-22T09:26:41.285Z,50.95
2023-05-22T09:27:41.197Z,50.97
2023-05-22T09:28:41.170Z,50.93
2023-05-22T09:29:41.199Z,51.06
2023-05-22T09:30:41.482Z,51.02
2023-05-22T09:31:41.259Z,51.15
2023-05-22T09:32:41.199Z,51.11
2023-05-22T09:33:41.200Z,51.04
2023-05-22T09:34:41.197Z,51.04
2023-05-22T09:35:41.209Z,51.18
2023-05-22T09:36:41.217Z,51.45
2023-05-22T09:37:41.225Z,51.33
2023-05-22T09:38:41.226Z,51.21
2023-05-22T09:39:41.253Z,51.12
2023-05-22T09:40:41.387Z,50.95
2023-05-22T09:41:41.359Z,50.74
2023-05-22T09:42:41.352Z,50.90
2023-05-22T09:43:41.393Z,50.92
2023-05-22T09:44:41.392Z,50.98
2023-05-22T09:45:41.412Z,50.95
2023-05-22T09:46:41.621Z,51.06
2023-05-22T09:47:41.502Z,51.29
2023-05-22T09:48:41.405Z,51.52
2023-05-22T09:49:41.477Z,51.90
2023-05-22T09:50:41.563Z,51.45
2023-05-22T09:51:41.568Z,51.50
2023-05-22T09:52:41.623Z,51.48
2023-05-22T09:53:41.687Z,51.27
2023-05-22T09:54:41.748Z,51.11
2023-05-22T09:55:41.757Z,51.04
2023-05-22T09:56:41.873Z,50.98
2023-05-22T09:57:41.904Z,51.07
2023-05-22T09:58:41.870Z,50.80
2023-05-22T09:59:41.932Z,50.56
2023-05-22T10:00:42.175Z,50.62
2023-05-22T10:01:42.073Z,51.57
2023-05-22T10:02:42.086Z,51.26
2023-05-22T10:03:42.147Z,51.23
2023-05-22T10:04:42.230Z,52.16
2023-05-22T10:05:42.285Z,52.55
2023-05-22T10:06:42.317Z,51.49
2023-05-22T10:07:42.355Z,50.80
2023-05-22T10:08:42.402Z,50.75
2023-05-22T10:09:42.737Z,51.63
2023-05-22T10:10:42.705Z,51.36
2023-05-22T10:11:42.560Z,50.89
2023-05-22T10:12:42.696Z,51.03
2023-05-22T10:13:42.643Z,51.34
2023-05-22T10:14:42.703Z,51.11
2023-05-22T10:15:42.785Z,50.76
2023-05-22T10:16:49.794Z,50.41
2023-05-22T10:17:42.799Z,50.72
2023-05-22T10:18:42.735Z,50.89
2023-05-22T10:19:44.505Z,50.80
2023-05-22T10:20:42.819Z,51.19
2023-05-22T10:21:42.867Z,51.10
2023-05-22T10:22:42.881Z,50.86
2023-05-22T10:23:42.957Z,50.79
2023-05-22T10:24:43.001Z,50.62
2023-05-22T10:25:43.091Z,50.40
2023-05-22T10:26:43.101Z,50.37
2023-05-22T10:27:43.213Z,50.48
2023-05-22T10:28:43.240Z,50.32
2023-05-22T10:29:43.311Z,50.49
2023-05-22T10:30:43.445Z,50.53
2023-05-22T10:31:43.385Z,50.64
2023-05-22T10:32:43.522Z,50.70
2023-05-22T10:33:43.581Z,50.52
2023-05-22T10:34:43.553Z,50.63
2023-05-22T10:35:43.616Z,50.74
2023-05-22T10:36:43.863Z,50.93
2023-05-22T10:37:43.733Z,51.18
2023-05-22T10:38:43.823Z,51.06
2023-05-22T10:39:43.855Z,50.97
2023-05-22T10:40:44.127Z,50.79
2023-05-22T10:41:43.944Z,50.81
2023-05-22T10:42:44.079Z,50.62
2023-05-22T10:43:44.086Z,50.44
2023-05-22T10:44:44.213Z,50.36
2023-05-22T10:45:45.521Z,50.13
2023-05-22T10:46:44.218Z,50.08
2023-05-22T10:47:44.373Z,49.99
2023-05-22T10:48:44.365Z,49.97
2023-05-22T10:49:44.377Z,50.13
2023-05-22T10:50:44.418Z,50.16
2023-05-22T10:51:44.449Z,50.25
2023-05-22T10:52:44.508Z,50.38
2023-05-22T10:53:44.568Z,50.44
2023-05-22T10:54:44.618Z,50.55
2023-05-22T10:55:44.683Z,50.53
2023-05-22T10:56:44.766Z,50.63
2023-05-22T10:57:44.827Z,50.77
2023-05-22T10:58:44.894Z,50.71
2023-05-22T10:59:44.942Z,50.60
2023-05-22T11:00:45.082Z,50.63
2023-05-22T11:01:45.056Z,50.46
2023-05-22T11:02:45.149Z,50.65
2023-05-22T11:03:45.237Z,50.17
2023-05-22T11:04:45.217Z,50.62
2023-05-22T11:05:45.290Z,50.58
2023-05-22T11:06:45.695Z,50.62
2023-05-22T11:07:45.781Z,50.53
2023-05-22T11:08:45.462Z,50.60
2023-05-22T11:09:45.526Z,50.65
2023-05-22T11:10:45.562Z,50.64
2023-05-22T11:11:45.645Z,50.66
2023-05-22T11:12:45.723Z,50.78
2023-05-22T11:13:45.767Z,50.92
2023-05-22T11:14:45.818Z,50.75
2023-05-22T11:15:45.906Z,50.77
2023-05-22T11:16:47.047Z,50.64
2023-05-22T11:17:46.035Z,50.59
2023-05-22T11:18:47.226Z,50.53
2023-05-22T11:19:46.146Z,50.54
2023-05-22T11:20:46.180Z,50.51
2023-05-22T11:21:46.224Z,50.49
2023-05-22T11:22:46.278Z,50.50
2023-05-22T11:23:46.346Z,50.75
2023-05-22T11:24:46.376Z,50.71
2023-05-22T11:25:46.434Z,50.64
2023-05-22T11:26:46.502Z,50.65
2023-05-22T11:27:46.571Z,50.70
2023-05-22T11:28:46.582Z,50.67
2023-05-22T11:29:46.684Z,50.67
2023-05-22T11:30:46.713Z,51.16
2023-05-22T11:31:46.742Z,51.50
2023-05-22T11:32:46.899Z,51.56
2023-05-22T11:33:46.792Z,50.58
2023-05-22T11:34:47.755Z,50.44
2023-05-22T11:35:46.830Z,50.47
2023-05-22T11:36:46.829Z,50.37
2023-05-22T11:37:46.910Z,50.35
2023-05-22T11:38:46.861Z,49.82
2023-05-22T11:39:46.896Z,49.80
2023-05-22T11:40:46.902Z,49.34
2023-05-22T11:41:46.934Z,49.54
2023-05-22T11:42:46.982Z,49.18
2023-05-22T11:43:46.980Z,49.38
2023-05-22T11:44:46.991Z,48.73
2023-05-22T11:45:46.990Z,47.78
2023-05-22T11:46:47.108Z,47.52
2023-05-22T11:47:47.074Z,47.37
2023-05-22T11:48:47.144Z,47.00
2023-05-22T11:49:47.068Z,47.02
2023-05-22T11:50:47.213Z,48.24
2023-05-22T11:51:47.070Z,48.84
2023-05-22T11:52:47.145Z,49.23
2023-05-22T11:53:47.159Z,49.21
2023-05-22T11:54:47.231Z,49.32
2023-05-22T11:55:47.229Z,49.34
2023-05-22T11:56:47.294Z,49.38
2023-05-22T11:57:47.279Z,49.45
2023-05-22T11:58:47.352Z,49.53
2023-05-22T11:59:47.366Z,49.51
2023-05-22T12:00:47.393Z,49.52
2023-05-22T12:01:47.455Z,49.51
2023-05-22T12:02:47.633Z,49.44
2023-05-22T12:03:47.539Z,49.45
2023-05-22T12:04:47.612Z,49.46
2023-05-22T12:05:47.593Z,49.36
2023-05-22T12:06:47.664Z,49.40
2023-05-22T12:07:47.644Z,49.54
2023-05-22T12:08:47.715Z,49.72
2023-05-22T12:09:47.735Z,49.63
2023-05-22T12:10:47.765Z,49.59
2023-05-22T12:11:47.805Z,49.58
2023-05-22T12:12:47.848Z,49.62
2023-05-22T12:13:47.888Z,49.58
2023-05-22T12:14:47.896Z,49.55
2023-05-22T12:15:47.939Z,49.52
2023-05-22T12:16:48.043Z,49.49
2023-05-22T12:17:48.028Z,49.43
2023-05-22T12:18:48.125Z,49.45
2023-05-22T12:19:48.131Z,49.51
2023-05-22T12:20:48.221Z,49.46
2023-05-22T12:21:48.166Z,49.54
2023-05-22T12:22:48.198Z,49.60
2023-05-22T12:23:48.220Z,49.44
2023-05-22T12:24:48.270Z,49.72
2023-05-22T12:25:48.320Z,49.68
2023-05-22T12:26:48.347Z,49.69
2023-05-22T12:27:48.389Z,49.65
2023-05-22T12:28:48.437Z,49.54
2023-05-22T12:29:48.486Z,49.58
2023-05-22T12:30:48.545Z,49.58
2023-05-22T12:31:48.620Z,49.57
2023-05-22T12:32:48.678Z,49.51
2023-05-22T12:33:48.688Z,49.52
2023-05-22T12:34:48.673Z,49.51
2023-05-22T12:35:48.724Z,49.39
2023-05-22T12:36:48.907Z,49.37
2023-05-22T12:37:48.853Z,49.40
2023-05-22T12:38:48.886Z,49.35
2023-05-22T12:39:48.925Z,49.29
2023-05-22T12:40:49.008Z,49.28
2023-05-22T12:41:49.020Z,49.27
2023-05-22T12:42:49.080Z,49.28
2023-05-22T12:43:49.149Z,49.20
2023-05-22T12:44:49.171Z,49.13
2023-05-22T12:45:49.243Z,49.16
2023-05-22T12:46:49.387Z,49.19
2023-05-22T12:47:49.400Z,49.18
2023-05-22T12:48:49.381Z,49.12
2023-05-22T12:49:49.466Z,49.05
2023-05-22T12:50:49.490Z,49.00
2023-05-22T12:51:49.553Z,48.94
2023-05-22T12:52:49.688Z,48.89
2023-05-22T12:53:49.671Z,48.86